createdAt,value
2023-02-27T00:00:48.888Z,3.70
2023-02-27T00:03:26.334Z,4.90
2023-02-27T00:05:56.523Z,8.30
2023-02-27T00:08:24.661Z,4.30
2023-02-27T00:10:53.195Z,3.90
2023-02-27T00:13:21.351Z,3.80
2023-02-27T00:15:52.274Z,3.60
2023-02-27T00:18:20.545Z,6.20
2023-02-27T00:20:48.538Z,4.50
2023-02-27T00:23:16.860Z,3.60
2023-02-27T00:25:45.032Z,5.20
2023-02-27T00:28:13.389Z,6.40
2023-02-27T00:30:41.488Z,4.90
2023-02-27T00:33:09.602Z,4.90
2023-02-27T00:35:37.728Z,3.70
2023-02-27T00:38:05.821Z,4.80
2023-02-27T00:40:35.971Z,5.70
2023-02-27T00:43:04.554Z,4.10
2023-02-27T00:45:32.520Z,4.30
2023-02-27T00:48:02.364Z,5.00
2023-02-27T00:50:30.287Z,3.50
2023-02-27T00:52:58.796Z,5.60
2023-02-27T00:55:27.474Z,4.60
2023-02-27T00:57:55.730Z,5.90
2023-02-27T01:00:23.994Z,5.30
2023-02-27T01:02:52.223Z,5.50
2023-02-27T01:05:20.879Z,4.80
2023-02-27T01:07:49.037Z,6.60
2023-02-27T01:10:17.634Z,3.80
2023-02-27T01:12:45.762Z,5.90
2023-02-27T01:15:14.199Z,4.50
2023-02-27T01:17:43.329Z,5.30
2023-02-27T01:20:13.025Z,5.20
2023-02-27T01:22:41.077Z,4.50
2023-02-27T01:25:10.324Z,5.20
2023-02-27T01:27:40.907Z,5.10
2023-02-27T01:30:11.574Z,4.90
2023-02-27T01:32:39.638Z,4.60
2023-02-27T01:35:08.390Z,4.80
2023-02-27T01:37:36.656Z,4.50
2023-02-27T01:40:07.319Z,4.10
2023-02-27T01:42:35.258Z,4.60
2023-02-27T01:45:12.646Z,4.90
2023-02-27T01:47:50.218Z,6.20
2023-02-27T01:50:19.530Z,5.70
2023-02-27T01:52:54.730Z,6.10
2023-02-27T01:55:26.266Z,5.50
2023-02-27T01:57:55.318Z,8.40
2023-02-27T02:00:23.695Z,5.20
2023-02-27T02:05:30.705Z,6.40
2023-02-27T02:08:00.650Z,4.60
2023-02-27T02:10:30.308Z,3.20
2023-02-27T02:12:59.157Z,4.10
2023-02-27T02:15:35.443Z,5.10
2023-02-27T02:18:27.812Z,3.90
2023-02-27T02:21:28.649Z,6.60
2023-02-27T02:24:21.418Z,5.00
2023-02-27T02:26:49.574Z,5.50
2023-02-27T02:29:21.871Z,5.00
2023-02-27T02:32:02.601Z,3.30
2023-02-27T02:37:28.198Z,4.00
2023-02-27T02:40:10.831Z,3.60
2023-02-27T02:42:49.116Z,3.50
2023-02-27T02:45:38.962Z,3.50
2023-02-27T02:48:16.764Z,3.10
2023-02-27T02:50:56.867Z,3.60
2023-02-27T02:53:45.094Z,3.50
2023-02-27T02:56:29.496Z,6.90
2023-02-27T02:59:06.475Z,3.10
2023-02-27T03:01:58.689Z,4.30
2023-02-27T03:04:34.190Z,4.00
2023-02-27T03:07:13.600Z,5.70
2023-02-27T03:09:50.964Z,4.70
2023-02-27T03:12:23.963Z,3.90
2023-02-27T03:15:13.048Z,3.20
2023-02-27T03:18:03.732Z,6.10
2023-02-27T03:20:38.181Z,3.20
2023-02-27T03:23:14.107Z,4.20
2023-02-27T03:25:46.393Z,4.20
2023-02-27T03:28:21.101Z,2.70
2023-02-27T03:31:06.950Z,3.50
2023-02-27T03:33:45.879Z,3.60
2023-02-27T03:36:28.836Z,4.60
2023-02-27T03:39:07.505Z,4.10
2023-02-27T03:42:07.370Z,4.80
2023-02-27T03:45:28.633Z,9.20
2023-02-27T03:47:57.339Z,3.60
2023-02-27T03:50:25.986Z,3.50
2023-02-27T03:52:54.788Z,4.70
2023-02-27T03:55:32.759Z,4.70
2023-02-27T03:58:01.544Z,4.90
2023-02-27T04:00:29.600Z,6.00
2023-02-27T04:03:00.097Z,4.20
2023-02-27T04:05:29.627Z,4.20
2023-02-27T04:08:14.140Z,6.20
2023-02-27T04:11:12.490Z,4.00
2023-02-27T04:13:46.483Z,6.10
2023-02-27T04:16:33.131Z,11.50
2023-02-27T04:19:13.274Z,5.40
2023-02-27T04:21:53.791Z,5.30
2023-02-27T04:27:46.910Z,4.20
2023-02-27T04:30:26.026Z,3.70
2023-02-27T04:33:29.284Z,4.40
2023-02-27T04:36:05.846Z,4.80
2023-02-27T04:38:37.876Z,5.40
2023-02-27T04:41:43.497Z,7.00
2023-02-27T04:44:14.650Z,7.30
2023-02-27T04:46:45.849Z,4.90
2023-02-27T04:49:23.704Z,5.90
2023-02-27T04:51:51.976Z,7.30
2023-02-27T04:54:30.288Z,6.20
2023-02-27T04:57:02.821Z,6.00
2023-02-27T04:59:37.623Z,4.80
2023-02-27T05:02:11.037Z,4.30
2023-02-27T05:04:41.790Z,5.10
2023-02-27T05:07:14.892Z,5.30
2023-02-27T05:10:01.034Z,10.70
2023-02-27T05:12:36.359Z,8.70
2023-02-27T05:15:19.718Z,7.70
2023-02-27T05:18:00.592Z,5.80
2023-02-27T05:20:35.676Z,7.50
2023-02-27T05:23:32.087Z,6.50
2023-02-27T05:26:19.884Z,10.50
2023-02-27T05:29:01.040Z,6.10
2023-02-27T05:31:47.087Z,4.70
2023-02-27T05:34:26.978Z,5.40
2023-02-27T05:37:04.750Z,5.80
2023-02-27T05:39:36.426Z,6.80
2023-02-27T05:42:11.972Z,8.50
2023-02-27T05:44:45.322Z,7.40
2023-02-27T05:47:20.421Z,5.90
2023-02-27T05:50:11.940Z,5.90
2023-02-27T05:52:41.565Z,6.20
2023-02-27T05:55:24.598Z,6.10
2023-02-27T05:57:59.414Z,7.70
2023-02-27T06:00:37.858Z,7.80
2023-02-27T06:03:06.452Z,5.80
2023-02-27T06:05:37.981Z,4.50
2023-02-27T06:08:06.020Z,6.90
2023-02-27T06:10:34.444Z,6.70
2023-02-27T06:13:02.456Z,6.40
2023-02-27T06:15:30.657Z,5.60
2023-02-27T06:17:58.953Z,6.00
2023-02-27T06:20:27.524Z,9.90
2023-02-27T06:22:55.507Z,10.00
2023-02-27T06:25:24.029Z,10.50
2023-02-27T06:27:52.161Z,5.10
2023-02-27T06:30:21.113Z,7.30
2023-02-27T06:32:56.538Z,6.70
2023-02-27T06:35:24.716Z,6.90
2023-02-27T06:37:52.694Z,10.60
2023-02-27T06:40:20.860Z,5.60
2023-02-27T06:42:49.648Z,7.90
2023-02-27T06:45:19.652Z,7.10
2023-02-27T06:47:48.571Z,6.40
2023-02-27T06:50:16.637Z,5.90
2023-02-27T06:52:44.689Z,8.50
2023-02-27T06:55:12.751Z,10.10
2023-02-27T06:57:40.991Z,7.90
2023-02-27T07:00:11.840Z,8.80
2023-02-27T07:05:08.743Z,10.80
2023-02-27T07:07:38.223Z,9.70
2023-02-27T07:10:13.234Z,11.60
2023-02-27T07:12:41.945Z,9.80
2023-02-27T07:15:10.480Z,9.00
2023-02-27T07:17:38.502Z,8.40
2023-02-27T07:20:08.923Z,7.70
2023-02-27T07:22:38.956Z,9.30
2023-02-27T07:25:08.094Z,14.00
2023-02-27T07:27:36.129Z,15.00
2023-02-27T07:30:04.691Z,12.30
2023-02-27T07:32:32.610Z,11.90
2023-02-27T07:35:00.709Z,16.40
2023-02-27T07:37:28.708Z,10.60
2023-02-27T07:39:56.862Z,8.20
2023-02-27T07:42:25.113Z,6.40
2023-02-27T07:44:53.096Z,10.20
2023-02-27T07:47:21.316Z,8.80
2023-02-27T07:49:49.306Z,11.30
2023-02-27T07:52:17.188Z,12.10
2023-02-27T07:54:45.507Z,9.30
2023-02-27T07:57:13.822Z,8.90
2023-02-27T07:59:41.915Z,11.30
2023-02-27T08:02:12.407Z,10.90
2023-02-27T08:04:40.625Z,9.00
2023-02-27T08:07:08.526Z,7.10
2023-02-27T08:09:36.637Z,9.20
2023-02-27T08:12:05.126Z,8.40
2023-02-27T08:14:32.999Z,11.40
2023-02-27T08:17:01.292Z,16.00
2023-02-27T08:19:29.293Z,11.20
2023-02-27T08:21:57.440Z,12.50
2023-02-27T08:24:25.651Z,9.40
2023-02-27T08:26:53.655Z,8.90
2023-02-27T08:29:21.609Z,7.20
2023-02-27T08:31:49.929Z,9.60
2023-02-27T08:34:18.028Z,7.70
2023-02-27T08:36:46.591Z,12.10
2023-02-27T08:39:14.597Z,9.00
2023-02-27T08:41:42.900Z,9.10
2023-02-27T08:44:13.695Z,10.30
2023-02-27T08:46:41.660Z,8.40
2023-02-27T08:49:09.663Z,8.70
2023-02-27T08:51:38.118Z,6.20
2023-02-27T08:54:06.346Z,5.20
2023-02-27T08:56:34.979Z,5.30
2023-02-27T08:59:03.027Z,7.00
2023-02-27T09:01:34.603Z,9.90
2023-02-27T09:04:04.928Z,5.50
2023-02-27T09:06:35.667Z,14.50
2023-02-27T09:09:05.300Z,11.20
2023-02-27T09:11:33.702Z,10.70
2023-02-27T09:14:01.651Z,6.90
2023-02-27T09:16:30.288Z,9.70
2023-02-27T09:18:58.887Z,8.20
2023-02-27T09:21:27.477Z,9.60
2023-02-27T09:24:02.639Z,7.90
2023-02-27T09:26:45.061Z,14.00
2023-02-27T09:29:14.148Z,7.80
2023-02-27T09:31:42.552Z,11.20
2023-02-27T09:34:10.575Z,8.10
2023-02-27T09:36:39.265Z,8.20
2023-02-27T09:39:09.359Z,9.90
2023-02-27T09:41:50.926Z,12.20
2023-02-27T09:44:39.819Z,6.40
2023-02-27T09:47:17.107Z,10.10
2023-02-27T09:49:58.009Z,8.50
2023-02-27T09:54:55.201Z,8.70
2023-02-27T09:57:49.779Z,11.80
2023-02-27T10:00:32.632Z,12.50
2023-02-27T10:03:24.040Z,6.60
2023-02-27T10:06:29.683Z,8.90
2023-02-27T10:09:18.506Z,8.70
2023-02-27T10:12:26.834Z,7.20
2023-02-27T10:15:03.355Z,9.10
2023-02-27T10:17:36.331Z,8.20
2023-02-27T10:20:18.090Z,9.50
2023-02-27T10:22:47.345Z,7.60
2023-02-27T10:25:30.734Z,14.00
2023-02-27T10:28:12.234Z,8.30
2023-02-27T10:30:42.974Z,11.30
2023-02-27T10:33:22.729Z,14.90
2023-02-27T10:35:53.926Z,6.60
2023-02-27T10:38:26.993Z,6.40
2023-02-27T10:40:58.800Z,7.30
2023-02-27T10:43:26.869Z,8.10
2023-02-27T10:45:55.058Z,7.30
2023-02-27T10:48:23.775Z,6.00
2023-02-27T10:50:52.324Z,8.00
2023-02-27T10:53:26.075Z,9.60
2023-02-27T10:56:23.139Z,5.90
2023-02-27T10:59:04.504Z,6.70
2023-02-27T11:01:49.196Z,6.90
2023-02-27T11:04:26.926Z,8.00
2023-02-27T11:06:56.307Z,10.00
2023-02-27T11:09:25.729Z,10.10
2023-02-27T11:11:54.939Z,11.70
2023-02-27T11:14:31.068Z,10.80
2023-02-27T11:17:03.239Z,9.70
2023-02-27T11:19:38.970Z,10.40
2023-02-27T11:22:08.693Z,8.30
2023-02-27T11:24:36.824Z,10.00
2023-02-27T11:27:20.884Z,10.60
2023-02-27T11:30:32.123Z,8.20
2023-02-27T11:33:01.561Z,9.60
2023-02-27T11:35:36.772Z,8.70
2023-02-27T11:38:09.035Z,7.50
2023-02-27T11:40:50.322Z,7.80
2023-02-27T11:43:22.150Z,8.40
2023-02-27T11:46:14.465Z,9.60
2023-02-27T11:49:22.496Z,6.30
2023-02-27T11:52:03.471Z,7.70
2023-02-27T11:54:35.061Z,5.20
2023-02-27T11:57:30.270Z,7.70
2023-02-27T12:00:06.535Z,9.20
2023-02-27T12:03:16.392Z,11.80
2023-02-27T12:05:51.200Z,7.30
2023-02-27T12:08:43.649Z,9.80
2023-02-27T12:11:28.370Z,10.90
2023-02-27T12:14:21.289Z,10.50
2023-02-27T12:17:07.192Z,9.20
2023-02-27T12:20:20.632Z,5.80
2023-02-27T12:22:52.895Z,5.50
2023-02-27T12:25:31.975Z,6.40
2023-02-27T12:28:03.885Z,6.10
2023-02-27T12:30:40.139Z,6.10
2023-02-27T12:33:42.088Z,10.10
2023-02-27T12:36:12.210Z,9.90
2023-02-27T12:38:40.297Z,8.90
2023-02-27T12:41:39.174Z,8.50
2023-02-27T12:44:25.978Z,7.70
2023-02-27T12:46:56.815Z,8.00
2023-02-27T12:49:43.013Z,8.40
2023-02-27T12:52:28.428Z,10.70
2023-02-27T12:55:11.010Z,9.70
2023-02-27T12:58:05.519Z,5.30
2023-02-27T13:00:47.834Z,10.40
2023-02-27T13:03:20.937Z,6.70
2023-02-27T13:06:03.127Z,10.40
2023-02-27T13:08:31.040Z,8.90
2023-02-27T13:11:04.888Z,6.70
2023-02-27T13:13:40.623Z,5.70
2023-02-27T13:16:17.736Z,8.30
2023-02-27T13:19:05.028Z,8.00
2023-02-27T13:21:49.756Z,6.60
2023-02-27T13:24:24.231Z,13.90
2023-02-27T13:26:58.133Z,10.00
2023-02-27T13:29:35.341Z,6.70
2023-02-27T13:32:44.438Z,7.10
2023-02-27T13:35:41.804Z,8.40
2023-02-27T13:38:34.868Z,7.80
2023-02-27T13:41:38.507Z,7.10
2023-02-27T13:44:39.977Z,10.80
2023-02-27T13:47:29.799Z,9.00
2023-02-27T13:50:00.253Z,9.00
2023-02-27T13:55:06.255Z,10.90
2023-02-27T13:57:39.686Z,11.60
2023-02-27T14:00:21.732Z,7.10
2023-02-27T14:03:21.010Z,9.00
2023-02-27T14:05:52.994Z,6.20
2023-02-27T14:08:26.873Z,6.40
2023-02-27T14:11:03.060Z,7.50
2023-02-27T14:13:54.697Z,12.90
2023-02-27T14:16:48.516Z,8.00
2023-02-27T14:19:17.219Z,8.90
2023-02-27T14:22:03.471Z,8.50
2023-02-27T14:25:01.121Z,8.10
2023-02-27T14:27:36.875Z,10.50
2023-02-27T14:30:08.037Z,8.70
2023-02-27T14:32:37.951Z,8.40
2023-02-27T14:35:06.543Z,14.50
2023-02-27T14:37:36.451Z,8.00
2023-02-27T14:40:06.408Z,7.20
2023-02-27T14:43:07.084Z,11.00
2023-02-27T14:45:35.078Z,8.10
2023-02-27T14:48:03.376Z,7.60
2023-02-27T14:50:36.653Z,8.10
2023-02-27T14:53:06.528Z,6.80
2023-02-27T14:55:38.413Z,11.50
2023-02-27T14:58:18.292Z,9.50
2023-02-27T15:00:50.746Z,12.90
2023-02-27T15:03:26.411Z,9.70
2023-02-27T15:05:59.386Z,14.60
2023-02-27T15:08:36.676Z,9.40
2023-02-27T15:11:06.434Z,8.30
2023-02-27T15:13:40.167Z,8.60
2023-02-27T15:16:23.646Z,10.20
2023-02-27T15:19:00.668Z,14.40
2023-02-27T15:21:32.939Z,13.10
2023-02-27T15:24:04.246Z,10.50
2023-02-27T15:26:38.471Z,12.10
2023-02-27T15:29:08.434Z,6.90
2023-02-27T15:31:36.422Z,7.50
2023-02-27T15:34:04.766Z,9.00
2023-02-27T15:36:35.595Z,7.80
2023-02-27T15:39:06.260Z,11.50
2023-02-27T15:44:03.674Z,10.40
2023-02-27T15:46:33.172Z,9.10
2023-02-27T15:49:01.232Z,7.00
2023-02-27T15:51:30.218Z,9.50
2023-02-27T15:54:00.367Z,10.00
2023-02-27T15:56:34.763Z,9.10
2023-02-27T15:59:04.334Z,10.30
2023-02-27T16:01:34.943Z,11.40
2023-02-27T16:04:06.579Z,10.90
2023-02-27T16:06:38.996Z,11.40
2023-02-27T16:09:16.679Z,9.40
2023-02-27T16:11:44.954Z,8.80
2023-02-27T16:14:37.747Z,12.80
2023-02-27T16:17:29.918Z,12.30
2023-02-27T16:20:02.291Z,17.10
2023-02-27T16:22:30.913Z,22.20
2023-02-27T16:25:10.850Z,20.00
2023-02-27T16:27:39.579Z,26.60
2023-02-27T16:30:11.998Z,17.50
2023-02-27T16:32:45.990Z,16.60
2023-02-27T16:35:24.024Z,17.20
2023-02-27T16:37:53.561Z,14.00
2023-02-27T16:40:24.941Z,15.20
2023-02-27T16:42:53.409Z,13.00
2023-02-27T16:45:25.219Z,15.90
2023-02-27T16:47:57.236Z,12.40
2023-02-27T16:50:32.432Z,13.70
2023-02-27T16:53:00.837Z,8.90
2023-02-27T16:55:28.970Z,15.80
2023-02-27T16:57:57.119Z,11.50
2023-02-27T17:00:25.014Z,11.50
2023-02-27T17:02:53.024Z,8.20
2023-02-27T17:05:22.744Z,12.20
2023-02-27T17:07:50.641Z,15.70
2023-02-27T17:10:22.463Z,15.80
2023-02-27T17:12:50.484Z,12.40
2023-02-27T17:15:19.299Z,11.70
2023-02-27T17:17:47.421Z,12.40
2023-02-27T17:20:16.193Z,20.30
2023-02-27T17:22:45.259Z,15.50
2023-02-27T17:25:13.902Z,17.50
2023-02-27T17:27:43.797Z,12.80
2023-02-27T17:30:13.353Z,9.60
2023-02-27T17:32:41.318Z,13.20
2023-02-27T17:35:10.139Z,15.20
2023-02-27T17:37:38.198Z,17.80
2023-02-27T17:40:08.420Z,13.60
2023-02-27T17:42:37.067Z,15.60
2023-02-27T17:45:07.538Z,15.40
2023-02-27T17:47:35.999Z,10.80
2023-02-27T17:50:05.081Z,8.50
2023-02-27T17:52:37.218Z,11.00
2023-02-27T17:55:06.782Z,10.00
2023-02-27T17:57:36.566Z,7.90
2023-02-27T18:00:06.350Z,9.20
2023-02-27T18:02:34.516Z,9.20
2023-02-27T18:05:04.691Z,14.20
2023-02-27T18:07:34.690Z,10.20
2023-02-27T18:10:05.455Z,10.90
2023-02-27T18:12:34.486Z,16.10
2023-02-27T18:15:03.387Z,14.10
2023-02-27T18:17:33.293Z,11.40
2023-02-27T18:20:01.287Z,12.50
2023-02-27T18:22:30.019Z,13.60
2023-02-27T18:24:58.816Z,11.90
2023-02-27T18:27:28.277Z,14.50
2023-02-27T18:29:57.677Z,12.40
2023-02-27T18:32:25.595Z,11.30
2023-02-27T18:34:54.076Z,8.90
2023-02-27T18:37:21.929Z,11.70
2023-02-27T18:39:50.504Z,12.10
2023-02-27T18:42:18.407Z,11.60
2023-02-27T18:44:47.713Z,13.50
2023-02-27T18:47:15.738Z,13.70
2023-02-27T18:49:44.036Z,13.30
2023-02-27T18:52:12.080Z,13.70
2023-02-27T18:54:42.387Z,12.50
2023-02-27T18:57:10.704Z,16.00
2023-02-27T18:59:41.283Z,12.00
2023-02-27T19:02:17.453Z,10.70
2023-02-27T19:04:47.373Z,12.60
2023-02-27T19:07:16.827Z,11.80
2023-02-27T19:09:45.175Z,12.30
2023-02-27T19:12:13.351Z,11.10
2023-02-27T19:14:41.391Z,15.10
2023-02-27T19:17:09.800Z,13.20
2023-02-27T19:19:37.860Z,12.20
2023-02-27T19:22:06.164Z,10.70
2023-02-27T19:24:34.711Z,12.00
2023-02-27T19:27:03.089Z,12.80
2023-02-27T19:29:31.170Z,9.80
2023-02-27T19:31:59.351Z,10.40
2023-02-27T19:34:27.404Z,9.90
2023-02-27T19:36:55.633Z,10.80
2023-02-27T19:39:23.578Z,13.20
2023-02-27T19:41:51.635Z,10.40
2023-02-27T19:44:19.837Z,10.90
2023-02-27T19:46:51.746Z,11.70
2023-02-27T19:49:20.453Z,11.30
2023-02-27T19:51:48.413Z,16.30
2023-02-27T19:54:16.695Z,10.70
2023-02-27T19:56:44.797Z,9.90
2023-02-27T19:59:13.293Z,14.10
2023-02-27T20:01:41.848Z,11.90
2023-02-27T20:04:11.104Z,16.40
2023-02-27T20:06:42.968Z,11.20
2023-02-27T20:09:14.541Z,11.10
2023-02-27T20:11:44.012Z,9.30
2023-02-27T20:14:13.986Z,11.70
2023-02-27T20:16:42.646Z,9.20
2023-02-27T20:19:14.389Z,7.00
2023-02-27T20:21:42.562Z,10.30
2023-02-27T20:24:11.824Z,10.70
2023-02-27T20:26:43.313Z,10.80
2023-02-27T20:29:23.124Z,7.40
2023-02-27T20:31:53.310Z,8.30
2023-02-27T20:34:26.585Z,8.90
2023-02-27T20:36:55.471Z,7.80
2023-02-27T20:39:24.616Z,9.10
2023-02-27T20:41:52.679Z,13.80
2023-02-27T20:44:20.547Z,10.00
2023-02-27T20:46:49.573Z,10.60
2023-02-27T20:49:18.507Z,11.00
2023-02-27T20:51:46.656Z,9.20
2023-02-27T20:54:20.173Z,10.60
2023-02-27T20:56:52.505Z,10.20
2023-02-27T20:59:23.739Z,14.60
2023-02-27T21:01:54.402Z,12.10
2023-02-27T21:04:43.170Z,9.80
2023-02-27T21:07:21.633Z,9.60
2023-02-27T21:09:50.886Z,9.50
2023-02-27T21:12:19.101Z,13.30
2023-02-27T21:14:49.655Z,10.60
2023-02-27T21:17:17.813Z,9.90
2023-02-27T21:19:45.796Z,8.70
2023-02-27T21:22:14.393Z,12.80
2023-02-27T21:24:42.382Z,11.90
2023-02-27T21:27:10.791Z,16.60
2023-02-27T21:29:38.924Z,13.20
2023-02-27T21:32:07.811Z,11.10
2023-02-27T21:34:36.282Z,8.80
2023-02-27T21:37:07.409Z,11.30
2023-02-27T21:39:35.784Z,7.10
2023-02-27T21:42:04.046Z,11.10
2023-02-27T21:44:32.073Z,10.10
2023-02-27T21:47:08.472Z,10.40
2023-02-27T21:49:37.196Z,8.40
2023-02-27T21:52:05.871Z,7.90
2023-02-27T21:54:33.798Z,9.40
2023-02-27T21:57:03.511Z,8.40
2023-02-27T21:59:31.403Z,11.80
2023-02-27T22:01:59.508Z,10.30
2023-02-27T22:04:27.739Z,8.80
2023-02-27T22:06:55.768Z,10.80
2023-02-27T22:09:23.708Z,9.70
2023-02-27T22:11:51.847Z,11.30
2023-02-27T22:14:19.841Z,10.40
2023-02-27T22:16:47.809Z,14.20
2023-02-27T22:19:20.962Z,12.40
2023-02-27T22:21:49.664Z,10.30
2023-02-27T22:24:18.343Z,10.90
2023-02-27T22:26:47.930Z,13.30
2023-02-27T22:29:17.129Z,11.50
2023-02-27T22:31:45.223Z,11.80
2023-02-27T22:34:18.644Z,14.70
2023-02-27T22:36:48.944Z,13.90
2023-02-27T22:39:16.892Z,16.90
2023-02-27T22:41:46.139Z,12.50
2023-02-27T22:44:16.020Z,12.70
2023-02-27T22:46:47.462Z,9.20
2023-02-27T22:49:23.621Z,13.70
2023-02-27T22:51:52.675Z,13.70
2023-02-27T22:54:22.851Z,13.10
2023-02-27T22:56:52.696Z,11.90
2023-02-27T22:59:20.973Z,15.60
2023-02-27T23:01:50.482Z,16.10
2023-02-27T23:04:18.803Z,13.20
2023-02-27T23:06:46.783Z,13.20
2023-02-27T23:09:20.667Z,15.30
2023-02-27T23:11:48.829Z,16.50
2023-02-27T23:14:17.523Z,16.10
2023-02-27T23:16:46.606Z,14.50
2023-02-27T23:19:17.815Z,16.60
2023-02-27T23:21:45.743Z,15.60
2023-02-27T23:24:17.191Z,15.20
2023-02-27T23:26:48.030Z,15.60
2023-02-27T23:29:16.782Z,15.00
2023-02-27T23:31:44.769Z,15.70
2023-02-27T23:34:13.149Z,12.30
2023-02-27T23:36:41.129Z,13.40
2023-02-27T23:39:09.521Z,12.70
2023-02-27T23:41:37.506Z,12.00
2023-02-27T23:44:05.415Z,14.80
2023-02-27T23:46:33.370Z,13.20
2023-02-27T23:49:01.902Z,10.70
2023-02-27T23:51:30.746Z,13.10
2023-02-27T23:53:59.992Z,13.40
2023-02-27T23:56:30.654Z,12.50
2023-02-27T23:59:01.843Z,11.30
